Time;durP1;ratioP1;P1;durP2;ratioP2;P2;SDS_P1;SDS_P2;PMS_P1;PMS_P2;Temp;Humidity;BMP_temperature;BMP_pressure;BME280_temperature;BME280_humidity;BME280_pressure;Samples;Min_cycle;Max_cycle;Signal;HPM_P1;HPM_P2
2023/08/12 00:01:12;;;;;;;;;;;;;;;21.70;94.97;101702.28;5023674;28;19952;-57
2023/08/12 00:03:37;;;;;;;;;;;;;;;21.69;94.76;101705.81;5022524;28;19909;-56
2023/08/12 00:06:05;;;;;;;;;;;;;;;21.66;94.51;101711.16;5024060;28;20162;-57
2023/08/12 00:08:30;;;;;;;;;;;;;;;21.59;94.77;101704.13;5023991;28;19963;-57
2023/08/12 00:10:55;;;;;;;;;;;;;;;21.52;94.13;101703.31;5021881;28;19918;-57
2023/08/12 00:13:20;;;;;;;;;;;;;;;21.45;95.11;101698.94;5021372;28;19952;-57
2023/08/12 00:15:46;;;;;;;;;;;;;;;21.44;95.81;101707.78;5025075;28;19905;-57
2023/08/12 00:18:11;;;;;;;;;;;;;;;21.45;95.96;101695.38;5023577;28;20110;-56
2023/08/12 00:20:37;;;;;;;;;;;;;;;21.46;96.37;101700.66;5021861;28;19949;-57
2023/08/12 00:23:03;;;;;;;;;;;;;;;21.48;94.93;101696.25;5021270;28;19932;-57
2023/08/12 00:25:28;;;;;;;;;;;;;;;21.41;96.08;101683.06;5022731;28;19968;-57
2023/08/12 00:27:53;;;;;;;;;;;;;;;21.30;95.89;101689.31;5023732;28;19909;-57
2023/08/12 00:30:19;;;;;;;;;;;;;;;21.19;96.94;101681.44;5023308;28;19951;-57
2023/08/12 00:32:44;;;;;;;;;;;;;;;21.13;97.85;101683.25;5023268;28;20221;-57
2023/08/12 00:35:09;;;;;;;;;;;;;;;21.10;96.61;101683.28;5023073;28;20139;-57
2023/08/12 00:37:34;;;;;;;;;;;;;;;21.08;97.62;101670.03;5022628;28;19913;-58
2023/08/12 00:40:00;;;;;;;;;;;;;;;21.12;98.54;101668.25;5022301;28;19913;-57
2023/08/12 00:42:25;;;;;;;;;;;;;;;21.17;98.56;101666.44;5022021;28;19921;-57
2023/08/12 00:44:50;;;;;;;;;;;;;;;21.19;98.82;101665.53;5023692;28;20160;-57
2023/08/12 00:47:16;;;;;;;;;;;;;;;21.19;98.86;101665.53;5021365;28;19917;-56
2023/08/12 00:49:43;;;;;;;;;;;;;;;21.16;98.75;101656.72;5023627;28;19917;-57
2023/08/12 00:52:09;;;;;;;;;;;;;;;21.13;98.65;101656.75;5023001;28;19909;-57
2023/08/12 00:54:34;;;;;;;;;;;;;;;21.13;98.71;101655.00;5024030;28;19965;-57
2023/08/12 00:56:59;;;;;;;;;;;;;;;21.16;98.64;101651.41;5024184;28;19909;-57
2023/08/12 00:59:25;;;;;;;;;;;;;;;21.18;98.33;101654.94;5024353;28;19992;-58
2023/08/12 01:01:50;;;;;;;;;;;;;;;21.20;98.17;101653.16;5023959;28;19912;-57
2023/08/12 01:04:15;;;;;;;;;;;;;;;21.22;98.45;101651.41;5024185;28;20059;-57
2023/08/12 01:06:40;;;;;;;;;;;;;;;21.25;98.72;101653.16;5022632;28;20171;-57
2023/08/12 01:09:06;;;;;;;;;;;;;;;21.25;98.35;101648.72;5025016;28;19968;-57
2023/08/12 01:11:39;;;;;;;;;;;;;;;21.26;98.51;101645.19;5020975;28;19909;-57
2023/08/12 01:14:04;;;;;;;;;;;;;;;21.26;98.08;101641.63;5023998;28;19912;-57
2023/08/12 01:16:32;;;;;;;;;;;;;;;21.26;98.30;101638.97;5023697;28;19906;-57
2023/08/12 01:18:58;;;;;;;;;;;;;;;21.27;98.54;101638.97;5023002;28;19914;-57
2023/08/12 01:21:24;;;;;;;;;;;;;;;21.25;98.04;101627.50;5019328;28;20090;-56
2023/08/12 01:23:49;;;;;;;;;;;;;;;21.27;98.53;101624.84;5021574;28;19955;-57
2023/08/12 01:26:15;;;;;;;;;;;;;;;21.27;98.34;101627.50;5022709;28;19909;-57
2023/08/12 01:28:40;;;;;;;;;;;;;;;21.28;98.23;101624.81;5022170;28;21095;-57
2023/08/12 01:31:16;;;;;;;;;;;;;;;21.28;98.08;101614.22;5020751;28;19955;-57
2023/08/12 01:34:00;;;;;;;;;;;;;;;21.27;98.54;101615.09;5022689;28;19977;-57
2023/08/12 01:36:27;;;;;;;;;;;;;;;21.25;97.84;101608.97;5003356;28;19930;-57
2023/08/12 01:38:56;;;;;;;;;;;;;;;21.22;98.61;101613.38;5003992;28;20009;-57
2023/08/12 01:41:22;;;;;;;;;;;;;;;21.17;98.31;101611.69;5022306;28;19905;-57
2023/08/12 01:43:48;;;;;;;;;;;;;;;21.18;98.64;101607.25;5020057;28;19921;-57
2023/08/12 01:46:13;;;;;;;;;;;;;;;21.18;98.99;101612.56;5021821;28;20135;-57
2023/08/12 01:48:38;;;;;;;;;;;;;;;21.14;98.73;101602.84;5022547;28;19909;-57
2023/08/12 01:51:04;;;;;;;;;;;;;;;21.07;99.17;101606.44;5022323;28;20254;-57
2023/08/12 01:53:29;;;;;;;;;;;;;;;21.04;99.46;101609.13;5021253;28;20506;-57
2023/08/12 01:55:54;;;;;;;;;;;;;;;21.02;99.71;101599.41;5020941;28;20160;-57
2023/08/12 01:58:20;;;;;;;;;;;;;;;20.98;99.45;101595.03;5021815;28;20433;-57
2023/08/12 02:00:45;;;;;;;;;;;;;;;20.94;99.52;101592.41;5020819;28;19968;-57
2023/08/12 02:03:10;;;;;;;;;;;;;;;20.89;100.00;101597.75;5020873;28;19943;-57
2023/08/12 02:05:37;;;;;;;;;;;;;;;20.89;100.00;101600.41;5021202;28;19918;-57
2023/08/12 02:08:02;;;;;;;;;;;;;;;20.87;100.00;101596.91;5021661;28;20201;-57
2023/08/12 02:10:27;;;;;;;;;;;;;;;20.88;100.00;101584.53;5017769;28;19930;-56
2023/08/12 02:12:53;;;;;;;;;;;;;;;20.83;100.00;101580.13;5021352;28;20275;-57
2023/08/12 02:15:18;;;;;;;;;;;;;;;20.81;100.00;101587.22;5022561;28;19909;-57
2023/08/12 02:17:43;;;;;;;;;;;;;;;20.82;100.00;101588.09;5021000;28;20125;-56
2023/08/12 02:20:09;;;;;;;;;;;;;;;20.80;100.00;101584.59;5019795;28;19988;-56
2023/08/12 02:22:34;;;;;;;;;;;;;;;20.78;100.00;101581.94;5024122;28;20194;-57
2023/08/12 02:24:59;;;;;;;;;;;;;;;20.77;100.00;101579.28;5026220;28;20147;-56
2023/08/12 02:27:25;;;;;;;;;;;;;;;20.70;100.00;101574.91;5025002;28;19910;-57
2023/08/12 02:29:50;;;;;;;;;;;;;;;20.66;100.00;101579.34;5022414;28;19971;-57
2023/08/12 02:32:15;;;;;;;;;;;;;;;20.60;100.00;101577.59;5024194;28;20540;-56
2023/08/12 02:34:40;;;;;;;;;;;;;;;20.59;100.00;101570.53;5025126;28;19910;-57
2023/08/12 02:37:05;;;;;;;;;;;;;;;20.61;100.00;101571.44;5026037;28;19979;-57
2023/08/12 02:39:31;;;;;;;;;;;;;;;20.59;100.00;101562.59;5007424;28;19940;-57
2023/08/12 02:41:56;;;;;;;;;;;;;;;20.55;100.00;101560.88;5024955;28;19932;-56
2023/08/12 02:44:21;;;;;;;;;;;;;;;20.53;100.00;101562.66;5023393;28;20144;-57
2023/08/12 02:46:46;;;;;;;;;;;;;;;20.54;100.00;101552.91;5025400;28;20139;-57
2023/08/12 02:49:11;;;;;;;;;;;;;;;20.50;100.00;101552.06;5026146;28;19964;-57
2023/08/12 02:51:37;;;;;;;;;;;;;;;20.50;100.00;101557.38;5025083;28;19916;-57
2023/08/12 02:54:02;;;;;;;;;;;;;;;20.49;100.00;101551.22;5026410;28;19909;-56
2023/08/12 02:56:27;;;;;;;;;;;;;;;20.49;100.00;101547.66;5026488;28;19912;-57
2023/08/12 02:58:52;;;;;;;;;;;;;;;20.47;100.00;101547.69;5026269;28;19917;-57
2023/08/12 03:01:18;;;;;;;;;;;;;;;20.47;100.00;101537.09;5024658;28;19906;-56
2023/08/12 03:03:43;;;;;;;;;;;;;;;20.48;100.00;101538.00;5026329;28;20122;-56
2023/08/12 03:06:08;;;;;;;;;;;;;;;20.46;100.00;101548.56;5026268;28;19968;-57
2023/08/12 03:08:33;;;;;;;;;;;;;;;20.43;100.00;101534.47;5008746;28;19905;-56
2023/08/12 03:11:00;;;;;;;;;;;;;;;20.37;100.00;101542.47;5026104;28;19932;-56
2023/08/12 03:13:25;;;;;;;;;;;;;;;20.29;100.00;101524.84;5007904;28;19924;-57
2023/08/12 03:15:50;;;;;;;;;;;;;;;20.29;100.00;101529.25;5025852;28;19905;-56
2023/08/12 03:18:15;;;;;;;;;;;;;;;20.27;100.00;101529.25;5024605;28;19909;-56
2023/08/12 03:20:40;;;;;;;;;;;;;;;20.27;100.00;101534.56;5024968;28;19914;-56
2023/08/12 03:23:06;;;;;;;;;;;;;;;20.26;100.00;101523.97;5023821;28;20068;-56
2023/08/12 03:25:31;;;;;;;;;;;;;;;20.24;100.00;101525.78;5023964;28;20209;-57
2023/08/12 03:27:56;;;;;;;;;;;;;;;20.22;100.00;101516.94;5023426;28;19986;-56
2023/08/12 03:30:21;;;;;;;;;;;;;;;20.19;100.00;101512.56;5025191;28;19910;-57
2023/08/12 03:32:46;;;;;;;;;;;;;;;20.19;100.00;101512.56;5024392;28;19909;-56
2023/08/12 03:35:12;;;;;;;;;;;;;;;20.19;100.00;101517.88;5022163;28;20210;-57
2023/08/12 03:37:37;;;;;;;;;;;;;;;20.16;100.00;101512.59;5023150;28;20032;-57
2023/08/12 03:40:03;;;;;;;;;;;;;;;20.11;100.00;101501.13;5020857;28;19980;-57
2023/08/12 03:42:28;;;;;;;;;;;;;;;20.06;100.00;101500.28;5022303;28;19921;-58
2023/08/12 03:44:54;;;;;;;;;;;;;;;19.98;100.00;101495.91;5024775;28;20086;-57
2023/08/12 03:47:21;;;;;;;;;;;;;;;19.92;100.00;101501.22;5023825;28;19925;-57
2023/08/12 03:49:47;;;;;;;;;;;;;;;19.92;100.00;101497.72;5021690;28;20070;-57
2023/08/12 03:52:12;;;;;;;;;;;;;;;19.91;100.00;101502.09;5022359;28;19909;-57
2023/08/12 03:54:37;;;;;;;;;;;;;;;19.91;100.00;101502.09;5024268;28;20198;-57
2023/08/12 03:57:02;;;;;;;;;;;;;;;19.90;100.00;101494.19;5024333;28;19929;-57
2023/08/12 03:59:28;;;;;;;;;;;;;;;19.91;100.00;101490.66;5023977;28;20135;-57
2023/08/12 04:01:53;;;;;;;;;;;;;;;19.94;100.00;101493.28;5023834;28;20005;-57
2023/08/12 04:04:18;;;;;;;;;;;;;;;19.94;100.00;101480.97;5024115;28;19972;-57
2023/08/12 04:06:43;;;;;;;;;;;;;;;19.94;100.00;101480.06;5023638;28;19913;-55
2023/08/12 04:09:09;;;;;;;;;;;;;;;19.91;100.00;101486.22;5023753;28;19955;-57
2023/08/12 04:11:34;;;;;;;;;;;;;;;19.87;100.00;101488.91;5022544;28;19968;-57
2023/08/12 04:13:59;;;;;;;;;;;;;;;19.82;100.00;101488.06;5020300;28;19924;-58
2023/08/12 04:16:25;;;;;;;;;;;;;;;19.82;100.00;101475.72;5022521;28;19914;-58
2023/08/12 04:18:50;;;;;;;;;;;;;;;19.79;100.00;101473.94;5024870;28;20239;-57
2023/08/12 04:21:15;;;;;;;;;;;;;;;19.74;100.00;101456.31;5022687;28;20072;-57
2023/08/12 04:23:40;;;;;;;;;;;;;;;19.70;100.00;101459.88;5022715;28;19910;-57
2023/08/12 04:26:05;;;;;;;;;;;;;;;19.68;100.00;101467.78;5026763;28;19921;-58
2023/08/12 04:28:31;;;;;;;;;;;;;;;19.69;100.00;101469.56;5021864;28;19936;-57
2023/08/12 04:30:56;;;;;;;;;;;;;;;19.70;100.00;101465.19;5023709;28;19918;-58
2023/08/12 04:33:22;;;;;;;;;;;;;;;19.66;100.00;101464.28;5022736;28;20139;-58
2023/08/12 04:35:47;;;;;;;;;;;;;;;19.61;100.00;101474.88;5024395;28;19916;-58
2023/08/12 04:38:12;;;;;;;;;;;;;;;19.59;100.00;101470.50;5020189;28;20312;-59
2023/08/12 04:40:39;;;;;;;;;;;;;;;19.59;100.00;101473.13;5023318;28;19948;-57
2023/08/12 04:43:04;;;;;;;;;;;;;;;19.61;100.00;101472.25;5022675;28;19941;-58
2023/08/12 04:45:29;;;;;;;;;;;;;;;19.62;100.00;101463.44;5019328;28;20087;-58
2023/08/12 04:47:55;;;;;;;;;;;;;;;19.60;100.00;101451.97;5023339;28;19909;-57
2023/08/12 04:50:20;;;;;;;;;;;;;;;19.59;100.00;101452.84;5006782;28;19936;-59
2023/08/12 04:52:46;;;;;;;;;;;;;;;19.61;100.00;101453.75;5023620;28;20178;-59
2023/08/12 04:55:11;;;;;;;;;;;;;;;19.61;100.00;101461.66;5024222;28;19913;-59
2023/08/12 04:57:37;;;;;;;;;;;;;;;19.62;100.00;101455.50;5024214;28;19972;-60
2023/08/12 05:00:03;;;;;;;;;;;;;;;19.60;100.00;101449.34;5023948;28;19947;-59
2023/08/12 05:02:28;;;;;;;;;;;;;;;19.57;100.00;101451.13;5023935;28;19951;-59
2023/08/12 05:04:53;;;;;;;;;;;;;;;19.56;100.00;101436.13;5024130;28;20067;-59
2023/08/12 05:07:18;;;;;;;;;;;;;;;19.50;100.00;101430.88;5025174;28;19929;-59
2023/08/12 05:09:44;;;;;;;;;;;;;;;19.46;100.00;101435.28;5023600;28;19916;-59
2023/08/12 05:12:09;;;;;;;;;;;;;;;19.44;100.00;101443.22;5023927;28;19964;-59
2023/08/12 05:14:34;;;;;;;;;;;;;;;19.45;100.00;101444.09;5023832;28;19921;-59
2023/08/12 05:16:59;;;;;;;;;;;;;;;19.43;100.00;101430.00;5023589;28;19909;-59
2023/08/12 05:19:25;;;;;;;;;;;;;;;19.42;100.00;101430.88;5021418;28;19909;-59
2023/08/12 05:21:50;;;;;;;;;;;;;;;19.44;100.00;101429.13;5023897;28;20091;-57
2023/08/12 05:24:15;;;;;;;;;;;;;;;19.42;100.00;101422.97;5019372;28;19917;-59
2023/08/12 05:26:40;;;;;;;;;;;;;;;19.41;100.00;101432.66;5023194;28;19952;-59
2023/08/12 05:29:05;;;;;;;;;;;;;;;19.42;100.00;101441.47;5004368;28;20000;-59
2023/08/12 05:31:31;;;;;;;;;;;;;;;19.39;100.00;101420.34;5022629;28;19917;-58
2023/08/12 05:33:56;;;;;;;;;;;;;;;19.38;100.00;101427.41;5022992;28;20194;-59
2023/08/12 05:36:21;;;;;;;;;;;;;;;19.38;100.00;101431.78;5019347;28;19937;-58
2023/08/12 05:38:46;;;;;;;;;;;;;;;19.35;100.00;101422.13;5019171;28;19914;-59
2023/08/12 05:41:11;;;;;;;;;;;;;;;19.34;100.00;101424.78;5023522;28;19905;-59
2023/08/12 05:43:37;;;;;;;;;;;;;;;19.34;100.00;101430.94;5021461;28;19940;-59
2023/08/12 05:46:02;;;;;;;;;;;;;;;19.32;100.00;101421.25;5022348;28;19917;-59
2023/08/12 05:48:27;;;;;;;;;;;;;;;19.32;100.00;101424.78;5021703;28;19917;-59
2023/08/12 05:50:53;;;;;;;;;;;;;;;19.28;100.00;101415.97;5021651;28;19972;-58
2023/08/12 05:53:18;;;;;;;;;;;;;;;19.29;100.00;101420.38;5012831;28;19905;-58
2023/08/12 05:55:43;;;;;;;;;;;;;;;19.29;100.00;101416.84;5019825;28;19932;-58
2023/08/12 05:58:08;;;;;;;;;;;;;;;19.31;100.00;101422.16;5020251;28;20009;-58
2023/08/12 06:00:34;;;;;;;;;;;;;;;19.31;100.00;101414.22;5023048;28;19910;-58
2023/08/12 06:02:59;;;;;;;;;;;;;;;19.33;100.00;101413.31;5021390;28;19916;-58
2023/08/12 06:05:24;;;;;;;;;;;;;;;19.36;100.00;101415.94;5022174;28;19943;-58
2023/08/12 06:07:49;;;;;;;;;;;;;;;19.37;100.00;101416.84;5024170;28;20196;-58
2023/08/12 06:10:14;;;;;;;;;;;;;;;19.35;100.00;101414.19;5021283;28;20036;-58
2023/08/12 06:12:40;;;;;;;;;;;;;;;19.36;100.00;101412.44;5022250;28;19905;-58
2023/08/12 06:15:05;;;;;;;;;;;;;;;19.32;100.00;101410.66;5022384;28;20137;-58
2023/08/12 06:17:30;;;;;;;;;;;;;;;19.29;100.00;101401.88;5021582;28;19939;-58
2023/08/12 06:19:55;;;;;;;;;;;;;;;19.32;100.00;101405.38;5022284;28;20173;-58
2023/08/12 06:22:21;;;;;;;;;;;;;;;19.34;100.00;101403.63;5020060;28;19968;-58
2023/08/12 06:24:46;;;;;;;;;;;;;;;19.35;100.00;101389.50;5011844;28;20110;-58
2023/08/12 06:27:11;;;;;;;;;;;;;;;19.36;100.00;101391.28;5020741;28;19988;-58
2023/08/12 06:29:36;;;;;;;;;;;;;;;19.36;100.00;101391.28;5021353;28;19977;-58
2023/08/12 06:32:02;;;;;;;;;;;;;;;19.38;100.00;101387.75;5022426;28;19915;-58
2023/08/12 06:34:27;;;;;;;;;;;;;;;19.38;100.00;101394.78;5022258;28;19909;-58
2023/08/12 06:36:52;;;;;;;;;;;;;;;19.36;100.00;101380.72;5022700;28;21018;-58
2023/08/12 06:39:17;;;;;;;;;;;;;;;19.36;100.00;101376.28;5023048;28;19921;-58
2023/08/12 06:41:42;;;;;;;;;;;;;;;19.37;100.00;101377.19;5021458;28;20007;-58
2023/08/12 06:44:08;;;;;;;;;;;;;;;19.36;100.00;101378.06;5018929;28;19916;-58
2023/08/12 06:46:33;;;;;;;;;;;;;;;19.38;100.00;101381.56;5021488;28;19916;-58
2023/08/12 06:48:59;;;;;;;;;;;;;;;19.40;100.00;101371.91;5019213;28;20004;-57
2023/08/12 06:51:24;;;;;;;;;;;;;;;19.43;100.00;101374.53;5020875;28;19909;-58
2023/08/12 06:53:49;;;;;;;;;;;;;;;19.45;100.00;101370.09;5020136;28;19909;-57
2023/08/12 06:56:14;;;;;;;;;;;;;;;19.47;100.00;101365.69;5022176;28;19937;-57
2023/08/12 06:58:40;;;;;;;;;;;;;;;19.48;100.00;101362.16;5022542;28;20066;-57
2023/08/12 07:01:05;;;;;;;;;;;;;;;19.49;100.00;101358.63;5021252;28;19913;-57
2023/08/12 07:03:30;;;;;;;;;;;;;;;19.52;100.00;101355.97;5021440;28;19936;-57
2023/08/12 07:05:55;;;;;;;;;;;;;;;19.54;100.00;101359.50;5020299;28;19924;-57
2023/08/12 07:08:21;;;;;;;;;;;;;;;19.56;100.00;101367.41;5018496;28;19913;-57
2023/08/12 07:10:46;;;;;;;;;;;;;;;19.56;100.00;101362.13;5021997;28;19909;-57
2023/08/12 07:13:11;;;;;;;;;;;;;;;19.56;100.00;101356.84;5025570;28;19980;-57
2023/08/12 07:15:36;;;;;;;;;;;;;;;19.58;100.00;101360.34;5024072;28;19937;-57
2023/08/12 07:18:02;;;;;;;;;;;;;;;19.60;100.00;101358.59;5023915;28;19932;-57
2023/08/12 07:20:27;;;;;;;;;;;;;;;19.60;100.00;101354.16;5025925;28;19909;-57
2023/08/12 07:22:53;;;;;;;;;;;;;;;19.60;100.00;101356.81;5025118;28;19910;-57
2023/08/12 07:25:18;;;;;;;;;;;;;;;19.63;100.00;101358.56;5021963;28;19931;-57
2023/08/12 07:27:43;;;;;;;;;;;;;;;19.64;100.00;101360.31;5020702;28;19932;-57
2023/08/12 07:30:08;;;;;;;;;;;;;;;19.64;100.00;101361.19;5022362;28;19910;-57
2023/08/12 07:32:34;;;;;;;;;;;;;;;19.62;100.00;101362.97;5020923;28;20013;-57
2023/08/12 07:34:59;;;;;;;;;;;;;;;19.62;100.00;101362.97;5023614;28;19939;-58
2023/08/12 07:37:25;;;;;;;;;;;;;;;19.63;100.00;101356.78;5024791;28;19921;-58
2023/08/12 07:39:50;;;;;;;;;;;;;;;19.63;100.00;101361.19;5022679;28;21120;-58
2023/08/12 07:42:15;;;;;;;;;;;;;;;19.67;100.00;101362.03;5026622;28;19909;-57
2023/08/12 07:44:40;;;;;;;;;;;;;;;19.71;100.00;101363.78;5024040;28;19909;-58
2023/08/12 07:47:05;;;;;;;;;;;;;;;19.71;100.00;101359.41;5024564;28;19951;-58
2023/08/12 07:49:31;;;;;;;;;;;;;;;19.73;100.00;101354.09;5023685;28;20151;-57
2023/08/12 07:51:56;;;;;;;;;;;;;;;19.76;100.00;101352.31;5023657;28;19917;-57
2023/08/12 07:54:21;;;;;;;;;;;;;;;19.81;100.00;101354.94;5019431;28;19955;-57
2023/08/12 07:56:46;;;;;;;;;;;;;;;19.85;100.00;101351.41;5020269;28;19929;-57
2023/08/12 07:59:11;;;;;;;;;;;;;;;19.90;100.00;101357.53;5024364;28;20020;-57
2023/08/12 08:01:37;;;;;;;;;;;;;;;19.93;100.00;101360.16;5023667;28;19916;-58
2023/08/12 08:04:02;;;;;;;;;;;;;;;20.01;100.00;101364.53;5020480;28;19910;-58
2023/08/12 08:06:28;;;;;;;;;;;;;;;20.03;100.00;101365.38;5026560;28;20048;-58
2023/08/12 08:08:54;;;;;;;;;;;;;;;20.06;100.00;101373.28;5023654;28;19916;-57
2023/08/12 08:11:19;;;;;;;;;;;;;;;20.16;100.00;101369.72;5024943;28;19905;-58
2023/08/12 08:13:44;;;;;;;;;;;;;;;20.20;100.00;101381.13;5025044;28;19905;-58
2023/08/12 08:16:09;;;;;;;;;;;;;;;20.24;100.00;101374.94;5025021;28;19929;-57
2023/08/12 08:18:34;;;;;;;;;;;;;;;20.24;100.00;101377.56;5023199;28;19914;-58
2023/08/12 08:20:59;;;;;;;;;;;;;;;20.26;100.00;101387.25;5019977;28;19921;-58
2023/08/12 08:23:25;;;;;;;;;;;;;;;20.26;100.00;101384.63;5020437;28;19921;-57
2023/08/12 08:25:50;;;;;;;;;;;;;;;20.26;100.00;101389.00;5014770;28;20111;-58
2023/08/12 08:28:15;;;;;;;;;;;;;;;20.27;100.00;101388.13;5015501;28;20086;-57
2023/08/12 08:30:40;;;;;;;;;;;;;;;20.25;100.00;101393.44;5016648;28;19909;-57
2023/08/12 08:33:06;;;;;;;;;;;;;;;20.32;100.00;101389.00;5021308;28;19918;-57
2023/08/12 08:35:31;;;;;;;;;;;;;;;20.27;100.00;101389.00;5024635;28;19913;-57
2023/08/12 08:37:56;;;;;;;;;;;;;;;20.30;100.00;101396.03;5023430;28;19992;-58
2023/08/12 08:40:21;;;;;;;;;;;;;;;20.33;100.00;101394.28;5023596;28;19968;-57
2023/08/12 08:42:51;;;;;;;;;;;;;;;20.47;100.00;101401.22;5021248;28;19917;-58
2023/08/12 08:45:17;;;;;;;;;;;;;;;20.43;100.00;101399.47;4992915;28;19909;-58
2023/08/12 08:47:42;;;;;;;;;;;;;;;20.46;100.00;101404.72;5020027;28;20077;-57
2023/08/12 08:50:08;;;;;;;;;;;;;;;20.37;100.00;101418.94;5020537;28;19944;-57
2023/08/12 08:52:33;;;;;;;;;;;;;;;20.34;100.00;101405.72;5019209;28;19924;-57
2023/08/12 08:55:00;;;;;;;;;;;;;;;20.39;100.00;101408.31;5003890;28;20139;-58
2023/08/12 08:57:28;;;;;;;;;;;;;;;20.34;100.00;101408.38;5019647;28;19932;-57
2023/08/12 08:59:53;;;;;;;;;;;;;;;20.42;100.00;101414.47;5019115;28;19937;-58
2023/08/12 09:02:18;;;;;;;;;;;;;;;20.44;100.00;101401.22;5018496;28;19980;-57
2023/08/12 09:04:44;;;;;;;;;;;;;;;20.48;100.00;101400.31;5019708;28;19989;-57
2023/08/12 09:07:09;;;;;;;;;;;;;;;20.47;100.00;101406.50;5021720;28;19916;-57
2023/08/12 09:09:35;;;;;;;;;;;;;;;20.49;100.00;101404.69;5019089;28;19905;-58
2023/08/12 09:12:01;;;;;;;;;;;;;;;20.50;100.00;101409.97;5004887;28;19979;-58
2023/08/12 09:14:26;;;;;;;;;;;;;;;20.52;100.00;101411.75;5020824;28;19948;-58
2023/08/12 09:16:52;;;;;;;;;;;;;;;20.47;100.00;101419.72;5020245;28;19918;-58
2023/08/12 09:19:17;;;;;;;;;;;;;;;20.49;100.00;101433.81;5020088;28;20023;-58
2023/08/12 09:21:42;;;;;;;;;;;;;;;20.31;100.00;101430.44;5020170;28;19909;-58
2023/08/12 09:24:08;;;;;;;;;;;;;;;20.28;100.00;101441.03;5020356;28;19973;-57
2023/08/12 09:26:33;;;;;;;;;;;;;;;20.23;100.00;101447.25;5021938;28;19916;-58
2023/08/12 09:28:59;;;;;;;;;;;;;;;20.27;100.00;101451.66;5023195;28;19924;-58
2023/08/12 09:31:25;;;;;;;;;;;;;;;20.44;100.00;101448.88;5019671;28;19921;-58
2023/08/12 09:33:50;;;;;;;;;;;;;;;20.30;100.00;101449.84;5021600;28;19917;-57
2023/08/12 09:36:16;;;;;;;;;;;;;;;20.15;100.00;101445.53;5022531;28;19968;-57
2023/08/12 09:38:42;;;;;;;;;;;;;;;20.16;100.00;101443.78;5022774;28;19972;-57
2023/08/12 09:41:07;;;;;;;;;;;;;;;20.21;100.00;101447.28;5021807;28;19928;-58
2023/08/12 09:43:33;;;;;;;;;;;;;;;20.30;100.00;101452.50;5020585;28;19913;-57
2023/08/12 09:46:01;;;;;;;;;;;;;;;20.36;100.00;101448.91;5022159;28;19926;-57
2023/08/12 09:48:26;;;;;;;;;;;;;;;20.11;100.00;101451.75;5020685;28;19916;-58
2023/08/12 09:50:54;;;;;;;;;;;;;;;20.24;100.00;101455.19;5022026;28;20094;-57
2023/08/12 09:53:21;;;;;;;;;;;;;;;20.07;100.00;101455.28;5021294;28;20194;-57
2023/08/12 09:55:47;;;;;;;;;;;;;;;20.09;100.00;101450.88;5017809;28;19917;-58
2023/08/12 09:58:16;;;;;;;;;;;;;;;20.18;100.00;101455.22;5023341;28;19921;-58
2023/08/12 10:00:42;;;;;;;;;;;;;;;20.15;100.00;101450.84;5023386;28;19939;-57
2023/08/12 10:03:07;;;;;;;;;;;;;;;20.18;100.00;101460.53;5021576;28;19913;-58
2023/08/12 10:05:33;;;;;;;;;;;;;;;20.14;100.00;101456.13;5023095;28;19905;-57
2023/08/12 10:08:01;;;;;;;;;;;;;;;20.23;100.00;101463.13;5021980;28;20140;-58
2023/08/12 10:10:27;;;;;;;;;;;;;;;20.24;100.00;101467.56;5018964;28;19921;-58
2023/08/12 10:12:52;;;;;;;;;;;;;;;20.26;100.00;101457.81;5020028;28;19913;-58
2023/08/12 10:15:18;;;;;;;;;;;;;;;20.27;100.00;101463.09;5021182;28;19984;-58
2023/08/12 10:17:44;;;;;;;;;;;;;;;20.30;100.00;101463.06;5019033;28;19914;-58
2023/08/12 10:20:12;;;;;;;;;;;;;;;20.25;100.00;101464.88;5002678;28;19909;-58
2023/08/12 10:22:38;;;;;;;;;;;;;;;20.31;100.00;101459.53;5013914;28;20127;-58
2023/08/12 10:25:04;;;;;;;;;;;;;;;20.19;100.00;101466.69;5001701;28;19917;-58
2023/08/12 10:27:29;;;;;;;;;;;;;;;20.29;100.00;101471.03;5023103;28;19906;-58
2023/08/12 10:29:57;;;;;;;;;;;;;;;20.31;100.00;101470.13;5020903;28;19909;-58
2023/08/12 10:32:23;;;;;;;;;;;;;;;20.33;100.00;101463.09;5018527;28;19925;-58
2023/08/12 10:34:53;;;;;;;;;;;;;;;20.45;100.00;101461.22;5023037;28;19968;-58
2023/08/12 10:37:19;;;;;;;;;;;;;;;20.42;100.00;101451.53;5021420;28;20165;-58
2023/08/12 10:39:45;;;;;;;;;;;;;;;20.52;100.00;101456.75;5019010;28;19956;-58
2023/08/12 10:42:10;;;;;;;;;;;;;;;20.69;100.00;101451.38;5022414;28;20194;-58
2023/08/12 10:44:40;;;;;;;;;;;;;;;20.87;100.00;101458.25;5006473;28;19909;-58
2023/08/12 10:47:10;;;;;;;;;;;;;;;20.93;100.00;101467.03;5024682;28;20071;-58
2023/08/12 10:49:42;;;;;;;;;;;;;;;21.00;100.00;101466.06;5024933;28;19910;-58
2023/08/12 10:52:19;;;;;;;;;;;;;;;21.06;100.00;101465.13;5024266;28;19910;-58
2023/08/12 10:54:45;;;;;;;;;;;;;;;21.04;100.00;101466.91;5024862;28;19909;-58
2023/08/12 10:57:14;;;;;;;;;;;;;;;21.12;100.00;101469.50;5025583;28;19956;-58
2023/08/12 10:59:46;;;;;;;;;;;;;;;21.19;100.00;101468.53;5026854;28;19932;-58
2023/08/12 11:02:23;;;;;;;;;;;;;;;21.31;100.00;101467.53;5026093;28;19905;-59
2023/08/12 11:04:51;;;;;;;;;;;;;;;21.25;100.00;101471.13;5026177;28;19909;-58
2023/08/12 11:07:32;;;;;;;;;;;;;;;21.24;100.00;101469.34;5025028;28;19909;-59
2023/08/12 11:10:26;;;;;;;;;;;;;;;21.29;98.89;101488.75;5025924;28;19912;-58
2023/08/12 11:12:51;;;;;;;;;;;;;;;21.19;98.71;101487.97;5022228;28;19921;-57
2023/08/12 11:15:17;;;;;;;;;;;;;;;21.26;95.27;101483.50;5024769;28;19910;-59
2023/08/12 11:17:42;;;;;;;;;;;;;;;21.25;95.77;101476.44;5008646;28;19905;-58
2023/08/12 11:20:09;;;;;;;;;;;;;;;21.37;93.97;101481.56;5025929;28;20629;-58
2023/08/12 11:22:39;;;;;;;;;;;;;;;21.49;88.59;101474.38;5026126;28;19937;-58
2023/08/12 11:25:08;;;;;;;;;;;;;;;21.45;86.07;101475.31;5025690;28;20084;-58
2023/08/12 11:27:43;;;;;;;;;;;;;;;21.51;79.59;101477.94;5024386;28;19972;-57
2023/08/12 11:30:10;;;;;;;;;;;;;;;21.42;84.97;101475.34;5021529;28;19917;-58
2023/08/12 11:32:35;;;;;;;;;;;;;;;21.53;87.24;101468.19;5023142;28;19917;-57
2023/08/12 11:35:01;;;;;;;;;;;;;;;21.80;89.64;101466.97;5024391;28;19929;-58
2023/08/12 11:37:26;;;;;;;;;;;;;;;22.13;86.81;101461.19;5025611;28;20188;-58
2023/08/12 11:39:52;;;;;;;;;;;;;;;22.27;85.16;101464.53;5025273;28;19913;-58
2023/08/12 11:42:17;;;;;;;;;;;;;;;22.38;84.65;101462.63;5023577;28;19976;-58
2023/08/12 11:44:42;;;;;;;;;;;;;;;22.44;86.96;101460.78;5025438;28;19906;-57
2023/08/12 11:47:08;;;;;;;;;;;;;;;22.54;82.67;101468.56;5007883;28;19906;-57
2023/08/12 11:49:33;;;;;;;;;;;;;;;22.49;77.36;101475.75;5024129;28;19913;-59
2023/08/12 11:51:59;;;;;;;;;;;;;;;22.18;79.69;101475.28;5019095;28;19930;-57
2023/08/12 11:54:24;;;;;;;;;;;;;;;21.99;81.22;101472.91;5006382;28;19937;-57
2023/08/12 11:56:49;;;;;;;;;;;;;;;21.96;80.19;101469.41;5025105;28;19940;-57
2023/08/12 11:59:15;;;;;;;;;;;;;;;22.01;79.56;101479.03;5025106;28;19905;-56
2023/08/12 12:01:40;;;;;;;;;;;;;;;21.93;80.81;101478.28;5025217;28;19988;-57
2023/08/12 12:04:05;;;;;;;;;;;;;;;21.92;82.78;101484.50;5025354;28;19956;-57
2023/08/12 12:06:32;;;;;;;;;;;;;;;22.05;82.08;101479.91;5024291;28;20158;-57
2023/08/12 12:09:04;;;;;;;;;;;;;;;22.15;79.88;101473.56;5024013;28;20155;-57
2023/08/12 12:11:29;;;;;;;;;;;;;;;22.05;79.16;101464.84;5024775;28;19906;-57
2023/08/12 12:13:54;;;;;;;;;;;;;;;21.93;80.09;101475.63;5025137;28;20055;-57
2023/08/12 12:16:19;;;;;;;;;;;;;;;21.85;80.83;101478.38;5024911;28;20058;-56
2023/08/12 12:18:44;;;;;;;;;;;;;;;21.82;81.59;101478.41;5023965;28;19941;-57
2023/08/12 12:21:10;;;;;;;;;;;;;;;21.85;81.77;101465.09;5024233;28;19980;-57
2023/08/12 12:23:36;;;;;;;;;;;;;;;22.06;79.70;101473.69;5024777;28;19976;-58